West Franklin, New Hampshire
Current Conditions -  °F | °C
As of 10:15 AM on Thursday 30 Oct 2014 (Local Time) from KLCI Reporting Station
Overcast Overcast  
Wind Chill: 42°   Ceiling: 7500
Heat Index: 46°   Visibility: 10mi
Dew Point: 37°   Wind: 8mph
Humidity: 71%   Direction: 250°WSW
Pressure: 29.91"   Gusts: NA
Location:  43.4435°N, 71.6697°W
Report Text: KLCI 301415Z AUTO 25007KT 10SM SCT042 OVC075 08/03 A2991 RMK AO1
Loading
Personal Weather Stations






























Interactive Weather Map New forecast layout! Learn more

10-Day Weather Forecast

Advertisements
Track Severe Weather on mobile